Time;durP1;ratioP1;P1;durP2;ratioP2;P2;SDS_P1;SDS_P2;PMS_P1;PMS_P2;Temp;Humidity;BMP_temperature;BMP_pressure;BME280_temperature;BME280_humidity;BME280_pressure;Samples;Min_cycle;Max_cycle;Signal;HPM_P1;HPM_P2
2021/11/24 00:01:35;;;;;;;36.67;22.97;;;;;;;-0.52;95.64;100339.23;1672176;84;21074;-76
2021/11/24 00:04:01;;;;;;;34.30;22.47;;;;;;;-0.54;95.73;100341.72;1692950;83;22368;-75
2021/11/24 00:06:27;;;;;;;38.00;23.17;;;;;;;-0.55;95.81;100347.49;1649605;86;21201;-71
2021/11/24 00:08:54;;;;;;;32.40;23.00;;;;;;;-0.54;96.22;100343.03;1678898;84;20999;-72
2021/11/24 00:11:20;;;;;;;33.93;23.20;;;;;;;-0.55;96.25;100353.27;1684459;82;22387;-72
2021/11/24 00:13:47;;;;;;;33.77;22.80;;;;;;;-0.55;96.46;100351.45;1694456;83;21043;-72
2021/11/24 00:16:15;;;;;;;32.10;19.60;;;;;;;-0.52;96.61;100351.61;1698432;84;21003;-72
2021/11/24 00:18:42;;;;;;;34.03;22.23;;;;;;;-0.48;96.88;100355.08;1698861;84;21106;-73
2021/11/24 00:21:08;;;;;;;31.67;20.97;;;;;;;-0.50;97.34;100355.77;1690992;83;21603;-74
2021/11/24 00:23:35;;;;;;;34.87;21.90;;;;;;;-0.53;97.22;100359.23;1656430;85;21048;-78
2021/11/24 00:26:02;;;;;;;37.43;22.50;;;;;;;-0.55;97.21;100365.16;1695923;84;21087;-76
2021/11/24 00:28:29;;;;;;;35.03;21.87;;;;;;;-0.56;97.36;100363.00;1698381;84;21050;-72
2021/11/24 00:30:56;;;;;;;34.53;22.37;;;;;;;-0.55;97.46;100368.63;1674474;84;21775;-86
2021/11/24 00:33:22;;;;;;;30.97;21.20;;;;;;;-0.52;97.69;100366.97;1702625;83;20960;-88
2021/11/24 00:35:48;;;;;;;37.07;23.30;;;;;;;-0.48;97.87;100368.81;1714513;83;21048;-86
2021/11/24 00:38:15;;;;;;;38.00;23.87;;;;;;;-0.47;97.97;100365.16;1713587;83;20952;-85
2021/11/24 00:40:42;;;;;;;37.53;23.03;;;;;;;-0.47;98.11;100369.13;1710615;83;21055;-91
2021/11/24 00:43:09;;;;;;;40.13;26.03;;;;;;;-0.49;98.19;100368.48;1678677;83;21501;-86
2021/11/24 00:45:36;;;;;;;32.40;21.93;;;;;;;-0.48;98.34;100378.06;1711628;83;20893;-82
2021/11/24 00:48:05;;;;;;;34.50;18.73;;;;;;;-0.48;98.45;100375.42;1714286;83;21710;-85
2021/11/24 00:50:34;;;;;;;40.50;24.03;;;;;;;-0.47;98.53;100373.09;1693009;83;21115;-84
2021/11/24 00:53:00;;;;;;;37.43;22.17;;;;;;;-0.46;98.60;100373.42;1712791;83;21013;-89
2021/11/24 00:55:26;;;;;;;33.77;22.03;;;;;;;-0.43;98.79;100374.41;1707172;83;21060;-85
2021/11/24 00:57:53;;;;;;;46.73;26.90;;;;;;;-0.42;98.87;100376.07;1676212;84;21061;-86
2021/11/24 01:00:21;;;;;;;46.27;26.43;;;;;;;-0.41;98.93;100371.62;1699303;83;21078;-73
2021/11/24 01:02:47;;;;;;;41.47;25.40;;;;;;;-0.38;99.02;100370.79;1676050;83;21524;-78
2021/11/24 01:05:14;;;;;;;46.00;25.93;;;;;;;-0.40;99.09;100364.03;1676148;84;21050;-76
2021/11/24 01:07:40;;;;;;;38.57;26.87;;;;;;;-0.40;99.23;100373.28;1708441;83;21085;-74
2021/11/24 01:10:09;;;;;;;45.57;28.57;;;;;;;-0.41;99.36;100373.77;1706753;83;21067;-74
2021/11/24 01:12:36;;;;;;;44.80;25.60;;;;;;;-0.34;99.48;100369.99;1677000;83;21028;-75
2021/11/24 01:15:04;;;;;;;50.53;29.13;;;;;;;-0.32;99.44;100373.28;1676157;84;21036;-80
2021/11/24 01:17:31;;;;;;;42.90;24.60;;;;;;;-0.30;99.48;100372.14;1676146;84;21024;-79
2021/11/24 01:19:57;;;;;;;52.03;29.00;;;;;;;-0.24;99.61;100376.76;1696076;84;21813;-76
2021/11/24 01:22:23;;;;;;;57.33;27.97;;;;;;;-0.24;99.40;100370.67;1700155;83;20971;-77
2021/11/24 01:24:50;;;;;;;59.43;31.73;;;;;;;-0.24;99.37;100375.95;1699615;83;20971;-77
2021/11/24 01:27:16;;;;;;;46.33;24.67;;;;;;;-0.24;99.43;100375.44;1698746;84;21541;-77
2021/11/24 01:29:43;;;;;;;54.80;30.77;;;;;;;-0.18;99.63;100381.89;1680683;83;21108;-76
2021/11/24 01:32:11;;;;;;;57.87;27.70;;;;;;;-0.16;99.59;100383.89;1703087;83;21275;-73
2021/11/24 01:34:38;;;;;;;50.83;25.97;;;;;;;-0.15;99.56;100378.94;1681272;83;21022;-76
2021/11/24 01:37:04;;;;;;;52.67;31.33;;;;;;;-0.15;99.52;100377.61;1704333;84;20908;-74
2021/11/24 01:39:30;;;;;;;55.10;26.33;;;;;;;-0.13;99.62;100375.13;1701503;83;21011;-75
2021/11/24 01:41:57;;;;;;;46.70;27.17;;;;;;;-0.09;99.71;100379.09;1712352;83;20993;-80
2021/11/24 01:44:27;;;;;;;47.30;24.77;;;;;;;-0.02;99.79;100381.42;1722599;82;21226;-73
2021/11/24 01:46:58;;;;;;;42.17;23.27;;;;;;;0.02;99.70;100379.27;1722491;82;20982;-78
2021/11/24 01:49:25;;;;;;;38.13;21.37;;;;;;;0.00;99.37;100383.91;1740526;81;21058;-77
2021/11/24 01:51:52;;;;;;;47.97;27.50;;;;;;;0.03;99.45;100382.25;1708131;82;21097;-78
2021/11/24 01:54:19;;;;;;;44.47;28.97;;;;;;;0.07;99.45;100382.73;1729138;83;21044;-77
2021/11/24 01:56:45;;;;;;;46.87;27.43;;;;;;;0.08;99.39;100377.78;1731355;82;21047;-77
2021/11/24 01:59:13;;;;;;;44.77;26.30;;;;;;;0.09;99.28;100377.62;1700081;83;21015;-79
2021/11/24 02:01:43;;;;;;;47.17;26.73;;;;;;;0.06;99.14;100387.69;1736155;82;21002;-78
2021/11/24 02:04:14;;;;;;;52.30;28.83;;;;;;;0.07;99.19;100388.86;1724407;82;20935;-79
2021/11/24 02:06:42;;;;;;;44.13;24.20;;;;;;;0.08;99.24;100389.69;1729404;83;21551;-80
2021/11/24 02:09:11;;;;;;;39.37;24.40;;;;;;;0.13;99.33;100384.23;1729190;82;21560;-72
2021/11/24 02:11:41;;;;;;;45.17;25.03;;;;;;;0.12;99.27;100381.25;1713963;82;21022;-74
2021/11/24 02:14:09;;;;;;;39.97;24.73;;;;;;;0.10;99.15;100379.25;1733618;82;21488;-75
2021/11/24 02:16:46;;;;;;;46.40;27.90;;;;;;;0.13;99.20;100380.76;1729236;82;20951;-75
2021/11/24 02:19:12;;;;;;;40.47;25.73;;;;;;;0.14;99.14;100377.13;1704184;82;21526;-74
2021/11/24 02:21:39;;;;;;;46.67;26.60;;;;;;;0.18;99.22;100385.06;1702235;83;21075;-76
2021/11/24 02:24:05;;;;;;;38.70;24.43;;;;;;;0.18;99.07;100380.59;1687570;82;21002;-76
2021/11/24 02:26:32;;;;;;;41.97;24.53;;;;;;;0.14;98.97;100381.92;1735156;82;21043;-76
2021/11/24 02:28:59;;;;;;;51.07;28.37;;;;;;;0.19;99.08;100386.20;1728249;82;21053;-77
2021/11/24 02:31:26;;;;;;;47.90;26.63;;;;;;;0.23;99.23;100390.68;1712257;82;21115;-77
2021/11/24 02:33:55;;;;;;;50.60;30.07;;;;;;;0.30;99.27;100398.27;1736900;82;21109;-74
2021/11/24 02:36:22;;;;;;;44.60;26.50;;;;;;;0.28;99.07;100390.52;1714601;82;21031;-73
2021/11/24 02:38:48;;;;;;;50.47;24.37;;;;;;;0.28;98.99;100400.27;1749559;81;20994;-74
2021/11/24 02:41:14;;;;;;;49.60;30.77;;;;;;;0.29;98.97;100391.31;1759737;81;21009;-73
2021/11/24 02:43:42;;;;;;;44.13;27.13;;;;;;;0.29;98.94;100393.47;1733549;81;20967;-78
2021/11/24 02:46:10;;;;;;;53.70;27.87;;;;;;;0.34;99.05;100387.67;1732793;81;21123;-76
2021/11/24 02:48:38;;;;;;;42.63;28.57;;;;;;;0.30;98.75;100391.16;1713551;81;21552;-75
2021/11/24 02:51:05;;;;;;;45.03;27.27;;;;;;;0.28;98.60;100398.95;1712702;82;21050;-75
2021/11/24 02:53:34;;;;;;;52.40;26.13;;;;;;;0.29;98.59;100408.51;1713265;82;21559;-74
2021/11/24 02:56:01;;;;;;;46.23;28.87;;;;;;;0.29;98.64;100405.86;1713439;82;21042;-75
2021/11/24 02:58:28;;;;;;;45.20;28.33;;;;;;;0.30;98.62;100409.67;1738555;82;21186;-75
2021/11/24 03:00:57;;;;;;;44.27;28.70;;;;;;;0.32;98.61;100410.35;1689884;82;21135;-75
2021/11/24 03:03:23;;;;;;;44.83;24.73;;;;;;;0.30;98.46;100418.11;1738724;82;21549;-75
2021/11/24 03:05:50;;;;;;;52.47;28.23;;;;;;;0.30;98.42;100415.45;1755554;81;21018;-73
2021/11/24 03:08:16;;;;;;;56.20;29.40;;;;;;;0.32;98.45;100416.14;1720456;82;21038;-74
2021/11/24 03:10:44;;;;;;;50.23;30.67;;;;;;;0.34;98.44;100420.74;1722654;81;21483;-75
2021/11/24 03:13:11;;;;;;;57.50;28.83;;;;;;;0.33;98.44;100412.02;1738571;82;21078;-75
2021/11/24 03:15:38;;;;;;;43.50;25.23;;;;;;;0.35;98.49;100421.08;1714023;82;21059;-75
2021/11/24 03:18:04;;;;;;;51.93;29.03;;;;;;;0.39;98.51;100423.23;1740086;82;21078;-75
2021/11/24 03:20:32;;;;;;;54.10;29.70;;;;;;;0.35;98.29;100421.08;1738738;82;21126;-75
2021/11/24 03:22:58;;;;;;;45.13;26.17;;;;;;;0.27;98.18;100425.06;1663841;82;21035;-75
2021/11/24 03:25:25;;;;;;;43.23;26.50;;;;;;;0.28;98.37;100425.40;1667415;84;21507;-74
2021/11/24 03:27:51;;;;;;;51.33;28.87;;;;;;;0.31;98.51;100429.86;1679153;84;21022;-73
2021/11/24 03:30:21;;;;;;;55.03;28.70;;;;;;;0.36;98.64;100422.25;1713290;82;21023;-75
2021/11/24 03:32:49;;;;;;;45.43;27.03;;;;;;;0.42;98.76;100428.20;1738661;82;21077;-74
2021/11/24 03:35:16;;;;;;;53.50;28.73;;;;;;;0.43;98.56;100432.48;1717659;81;21495;-73
2021/11/24 03:37:43;;;;;;;69.20;37.33;;;;;;;0.41;98.32;100432.33;1759264;81;20978;-74
2021/11/24 03:40:11;;;;;;;54.50;29.93;;;;;;;0.38;98.21;100427.38;1759330;81;21029;-74
2021/11/24 03:42:41;;;;;;;52.67;30.77;;;;;;;0.38;98.23;100430.83;1754124;81;21061;-75
2021/11/24 03:45:10;;;;;;;53.60;29.30;;;;;;;0.43;98.25;100440.95;1741218;81;21069;-75
2021/11/24 03:47:37;;;;;;;57.40;31.30;;;;;;;0.44;98.12;100442.08;1735664;81;21246;-74
2021/11/24 03:50:08;;;;;;;52.53;27.00;;;;;;;0.42;97.92;100441.44;1735835;81;20998;-74
2021/11/24 03:52:34;;;;;;;60.20;28.03;;;;;;;0.42;97.96;100440.61;1736700;81;20950;-75
2021/11/24 03:55:03;;;;;;;56.10;32.03;;;;;;;0.39;97.95;100440.42;1736320;81;20999;-74
2021/11/24 03:57:29;;;;;;;55.83;30.83;;;;;;;0.39;97.95;100439.59;1714378;82;21129;-74
2021/11/24 03:59:58;;;;;;;57.37;29.13;;;;;;;0.39;97.99;100442.24;1739137;81;21199;-74
2021/11/24 04:02:24;;;;;;;50.73;28.33;;;;;;;0.37;98.01;100446.89;1737570;82;21590;-75
2021/11/24 04:04:52;;;;;;;55.30;31.07;;;;;;;0.39;98.13;100454.98;1738527;82;21058;-78
2021/11/24 04:07:18;;;;;;;53.97;27.53;;;;;;;0.41;98.23;100451.69;1758817;81;21030;-75
2021/11/24 04:09:47;;;;;;;48.80;28.50;;;;;;;0.48;98.40;100451.03;1759442;81;21033;-76
2021/11/24 04:12:14;;;;;;;51.97;29.47;;;;;;;0.52;98.40;100452.34;1734586;81;21150;-76
2021/11/24 04:14:41;;;;;;;52.87;30.03;;;;;;;0.54;98.37;100465.73;1653946;85;21041;-76
2021/11/24 04:17:07;;;;;;;58.43;33.83;;;;;;;0.56;98.24;100453.66;1718121;83;21013;-77
2021/11/24 04:19:35;;;;;;;57.97;32.83;;;;;;;0.55;98.16;100450.19;1704371;82;21020;-76
2021/11/24 04:22:01;;;;;;;52.10;31.57;;;;;;;0.57;98.16;100459.30;1700520;84;20996;-77
2021/11/24 04:24:28;;;;;;;44.43;27.30;;;;;;;0.63;98.29;100463.41;1679110;83;21153;-78
2021/11/24 04:26:54;;;;;;;59.43;32.67;;;;;;;0.63;98.07;100465.22;1703388;82;21748;-79
2021/11/24 04:29:22;;;;;;;55.17;32.73;;;;;;;0.63;97.94;100463.89;1703229;83;21011;-80
2021/11/24 04:31:49;;;;;;;49.97;30.30;;;;;;;0.59;97.84;100461.25;1678777;84;21653;-76
2021/11/24 04:34:16;;;;;;;50.40;29.37;;;;;;;0.54;97.80;100462.25;1679955;84;21007;-76
2021/11/24 04:36:43;;;;;;;54.07;30.70;;;;;;;0.53;97.86;100460.63;1679790;84;21298;-75
2021/11/24 04:39:09;;;;;;;53.57;30.80;;;;;;;0.54;97.94;100458.28;1705218;84;21019;-77
2021/11/24 04:41:36;;;;;;;50.50;28.17;;;;;;;0.55;97.99;100461.27;1737826;81;21002;-77
2021/11/24 04:44:05;;;;;;;54.10;32.73;;;;;;;0.59;98.14;100451.99;1694589;81;21522;-77
2021/11/24 04:46:31;;;;;;;48.10;31.00;;;;;;;0.64;98.16;100461.09;1742644;81;20987;-78
2021/11/24 04:48:58;;;;;;;50.67;27.90;;;;;;;0.65;97.97;100459.28;1713930;81;21049;-77
2021/11/24 04:51:24;;;;;;;56.70;34.23;;;;;;;0.64;97.82;100460.27;1706460;82;21023;-77
2021/11/24 04:53:50;;;;;;;45.57;26.87;;;;;;;0.67;97.83;100468.69;1738698;82;21033;-79
2021/11/24 04:56:19;;;;;;;59.17;36.30;;;;;;;0.71;97.81;100467.87;1752908;81;20930;-80
2021/11/24 04:58:54;;;;;;;56.57;31.67;;;;;;;0.72;97.69;100461.08;1735815;81;21006;-80
2021/11/24 05:01:20;;;;;;;48.13;32.80;;;;;;;0.74;97.67;100465.72;1735814;81;21023;-76
2021/11/24 05:03:46;;;;;;;53.77;34.10;;;;;;;0.73;97.57;100470.67;1737735;81;20987;-76
2021/11/24 05:06:13;;;;;;;55.07;32.57;;;;;;;0.74;97.57;100482.92;1714216;82;21540;-79
2021/11/24 05:08:40;;;;;;;55.67;32.88;;;;;;;0.75;97.55;100476.64;1713264;82;20994;-72
2021/11/24 05:11:09;;;;;;;52.80;30.83;;;;;;;0.71;97.39;100481.12;1714260;82;20966;-73
2021/11/24 05:13:37;;;;;;;79.30;45.53;;;;;;;0.69;97.40;100479.95;1714314;82;21204;-73
2021/11/24 05:16:05;;;;;;;57.30;31.30;;;;;;;0.71;97.48;100481.12;1755501;81;20998;-72
2021/11/24 05:18:38;;;;;;;69.63;39.10;;;;;;;0.77;97.64;100485.72;1759186;81;21508;-73
2021/11/24 05:21:13;;;;;;;60.20;35.20;;;;;;;0.81;97.63;100475.16;1759383;81;20984;-72
2021/11/24 05:23:37;;;;;;;52.67;32.97;;;;;;;0.82;97.60;100471.48;1713467;82;21082;-75
2021/11/24 05:26:01;;;;;;;58.80;35.17;;;;;;;0.86;97.62;100475.48;1749238;81;21174;-73
2021/11/24 05:28:28;;;;;;;70.23;39.30;;;;;;;0.86;97.47;100479.45;1735462;81;21512;-74
2021/11/24 05:30:54;;;;;;;61.10;34.37;;;;;;;0.93;97.59;100486.20;1735692;81;21034;-73
2021/11/24 05:33:21;;;;;;;59.03;33.10;;;;;;;0.95;97.46;100482.41;1735690;81;21520;-73
2021/11/24 05:35:51;;;;;;;51.73;30.63;;;;;;;0.96;97.28;100491.98;1735363;81;21070;-76
2021/11/24 05:38:18;;;;;;;69.73;36.27;;;;;;;0.98;97.34;100491.83;1702389;83;21096;-78
2021/11/24 05:40:46;;;;;;;48.17;29.07;;;;;;;1.02;97.38;100482.55;1712839;82;20960;-76
2021/11/24 05:43:13;;;;;;;65.07;38.33;;;;;;;1.08;97.38;100488.00;1705146;82;21059;-79
2021/11/24 05:45:59;;;;;;;60.17;33.85;;;;;;;1.07;97.13;100494.29;1723427;82;21002;-76
2021/11/24 05:48:13;;;;;;;47.03;29.48;;;;;;;1.11;97.13;100495.60;1720312;83;21078;-77
2021/11/24 05:50:42;;;;;;;53.00;31.30;;;;;;;1.14;97.01;100489.16;1724356;83;21093;-79
2021/11/24 05:53:11;;;;;;;57.27;34.20;;;;;;;1.07;96.81;100492.97;1704904;83;21007;-78
2021/11/24 05:55:37;;;;;;;64.03;37.07;;;;;;;1.04;96.85;100501.75;1729474;82;21047;-79
2021/11/24 05:58:03;;;;;;;64.77;35.37;;;;;;;1.02;96.95;100503.73;1734214;82;21051;-79
2021/11/24 06:00:30;;;;;;;59.63;38.10;;;;;;;1.06;97.07;100508.52;1700253;82;21085;-76
2021/11/24 06:02:56;;;;;;;43.80;29.23;;;;;;;1.13;97.27;100512.66;1694165;84;21435;-79
2021/11/24 06:05:23;;;;;;;56.70;31.57;;;;;;;1.21;97.17;100519.26;1706006;82;21549;-79
2021/11/24 06:07:49;;;;;;;57.37;33.13;;;;;;;1.23;97.02;100513.30;1735530;82;21070;-76
2021/11/24 06:10:16;;;;;;;53.70;29.63;;;;;;;1.26;97.01;100521.73;1716603;82;21505;-75
2021/11/24 06:12:43;;;;;;;43.90;27.13;;;;;;;1.35;96.97;100521.70;1735874;82;21052;-77
2021/11/24 06:15:15;;;;;;;57.47;33.77;;;;;;;1.37;96.66;100523.20;1713857;82;21041;-75
2021/11/24 06:17:42;;;;;;;57.90;35.57;;;;;;;1.34;96.40;100526.20;1694016;84;20987;-74
2021/11/24 06:20:11;;;;;;;63.37;35.17;;;;;;;1.37;96.37;100527.67;1721453;82;20939;-76
2021/11/24 06:22:38;;;;;;;62.47;34.67;;;;;;;1.41;96.35;100517.06;1723246;81;21603;-75
2021/11/24 06:25:08;;;;;;;62.53;34.60;;;;;;;1.42;96.20;100525.34;1725356;82;21070;-76
2021/11/24 06:27:36;;;;;;;48.17;28.92;;;;;;;1.42;96.09;100527.99;1692676;82;21025;-75
2021/11/24 06:30:04;;;;;;;62.43;33.60;;;;;;;1.43;96.02;100526.51;1718497;82;21015;-78
2021/11/24 06:32:32;;;;;;;66.43;42.27;;;;;;;1.46;96.05;100529.30;1736538;82;21039;-76
2021/11/24 06:34:59;;;;;;;62.23;38.20;;;;;;;1.50;95.97;100525.30;1711637;81;21108;-79
2021/11/24 06:37:26;;;;;;;46.92;31.17;;;;;;;1.54;95.96;100532.75;1745929;81;21590;-80
2021/11/24 06:39:52;;;;;;;57.53;35.45;;;;;;;1.61;96.07;100527.10;1712570;82;21261;-76
2021/11/24 06:42:19;;;;;;;46.80;30.30;;;;;;;1.70;95.96;100528.72;1712706;81;21610;-77
2021/11/24 06:44:45;;;;;;;45.12;32.38;;;;;;;1.80;95.86;100530.34;1709076;84;20951;-76
2021/11/24 06:47:13;;;;;;;47.27;28.80;;;;;;;1.83;95.56;100529.48;1709163;84;21535;-77
2021/11/24 06:49:43;;;;;;;60.33;36.83;;;;;;;1.88;95.44;100527.64;1684777;84;21014;-78
2021/11/24 06:52:09;;;;;;;57.85;31.55;;;;;;;1.93;95.28;100521.31;1684541;84;21053;-76
2021/11/24 06:54:38;;;;;;;52.70;36.88;;;;;;;1.98;95.07;100525.60;1754552;81;21546;-76
2021/11/24 06:57:05;;;;;;;46.48;29.52;;;;;;;2.04;94.95;100528.40;1747807;81;21069;-75
2021/11/24 06:59:31;;;;;;;63.75;39.23;;;;;;;2.05;94.49;100524.75;1713716;82;20956;-74
2021/11/24 07:01:58;;;;;;;48.78;31.30;;;;;;;1.98;93.96;100526.92;1712661;82;21500;-74
2021/11/24 07:04:25;;;;;;;51.83;32.73;;;;;;;1.89;93.69;100532.78;1756262;81;21134;-74
2021/11/24 07:06:52;;;;;;;47.88;33.67;;;;;;;1.81;93.62;100533.32;1759990;81;20891;-74
2021/11/24 07:09:18;;;;;;;61.33;37.05;;;;;;;1.73;93.71;100528.86;1737785;81;20946;-73
2021/11/24 07:11:45;;;;;;;57.25;34.33;;;;;;;1.68;93.92;100537.33;1759372;81;21050;-79
2021/11/24 07:14:11;;;;;;;52.35;32.10;;;;;;;1.75;94.30;100534.83;1759474;81;21014;-78
2021/11/24 07:16:38;;;;;;;48.13;32.85;;;;;;;1.84;94.47;100539.59;1735747;81;21146;-77
2021/11/24 07:19:04;;;;;;;57.13;33.30;;;;;;;1.87;94.29;100537.42;1759536;81;21034;-77
2021/11/24 07:21:31;;;;;;;55.45;35.17;;;;;;;1.87;94.29;100542.72;1717268;81;20978;-77
2021/11/24 07:23:58;;;;;;;51.55;33.60;;;;;;;1.87;94.19;100538.74;1735701;81;21026;-79
2021/11/24 07:26:26;;;;;;;47.03;31.57;;;;;;;1.87;94.15;100541.39;1741982;81;20994;-74
2021/11/24 07:28:53;;;;;;;50.75;35.73;;;;;;;1.90;94.25;100542.89;1738589;82;21042;-74
2021/11/24 07:31:20;;;;;;;49.77;34.65;;;;;;;1.90;94.28;100543.72;1731550;81;20962;-75
2021/11/24 07:33:46;;;;;;;55.80;34.45;;;;;;;1.97;94.46;100540.69;1749654;81;20979;-77
2021/11/24 07:36:12;;;;;;;52.40;31.50;;;;;;;2.10;94.71;100546.78;1747040;81;21070;-79
2021/11/24 07:38:39;;;;;;;46.55;30.40;;;;;;;2.18;94.54;100548.88;1746129;81;21053;-77
2021/11/24 07:41:06;;;;;;;50.10;33.60;;;;;;;2.27;94.32;100548.33;1753625;81;21079;-78
2021/11/24 07:43:32;;;;;;;45.28;33.92;;;;;;;2.31;94.03;100548.30;1759620;81;20994;-79
2021/11/24 07:45:59;;;;;;;48.50;35.78;;;;;;;2.34;93.79;100551.95;1720718;81;20979;-79
2021/11/24 07:48:26;;;;;;;47.53;30.37;;;;;;;2.32;93.41;100550.45;1711406;84;21033;-79
2021/11/24 07:50:52;;;;;;;46.37;31.23;;;;;;;2.32;93.39;100555.27;1749229;81;21065;-78
2021/11/24 07:53:19;;;;;;;45.58;29.32;;;;;;;2.36;93.38;100554.41;1730071;81;21753;-79
2021/11/24 07:55:46;;;;;;;45.40;30.23;;;;;;;2.41;93.38;100547.57;1735797;81;20982;-78
2021/11/24 07:58:14;;;;;;;55.12;33.70;;;;;;;2.44;93.28;100549.89;1759358;81;21490;-78
2021/11/24 08:00:41;;;;;;;46.68;30.97;;;;;;;2.48;93.11;100549.03;1759393;81;21019;-81
2021/11/24 08:03:07;;;;;;;52.35;32.83;;;;;;;2.47;92.73;100554.02;1742904;81;21147;-79
2021/11/24 08:05:33;;;;;;;42.20;29.02;;;;;;;2.48;92.82;100555.67;1719152;82;21016;-78
2021/11/24 08:08:00;;;;;;;52.85;34.40;;;;;;;2.52;92.84;100554.31;1740756;81;21507;-78
2021/11/24 08:10:28;;;;;;;49.42;30.80;;;;;;;2.54;92.68;100555.77;1714864;82;21038;-77
2021/11/24 08:12:55;;;;;;;46.23;32.93;;;;;;;2.54;92.47;100557.09;1699692;82;21009;-72
2021/11/24 08:15:21;;;;;;;49.95;33.40;;;;;;;2.55;92.57;100560.09;1717503;81;21010;-76
2021/11/24 08:17:47;;;;;;;49.95;33.83;;;;;;;2.57;92.57;100558.09;1738461;82;21801;-71
2021/11/24 08:20:15;;;;;;;41.88;31.30;;;;;;;2.60;92.53;100564.86;1738765;82;21013;-74
2021/11/24 08:22:42;;;;;;;43.83;28.73;;;;;;;2.61;92.56;100558.06;1713362;82;21539;-75
2021/11/24 08:25:09;;;;;;;46.90;28.65;;;;;;;2.68;92.69;100560.02;1714356;82;21045;-78
2021/11/24 08:27:37;;;;;;;51.98;34.08;;;;;;;2.69;92.67;100554.50;1722020;81;20958;-74
2021/11/24 08:30:06;;;;;;;63.58;35.80;;;;;;;2.73;92.66;100555.83;1737786;81;21169;-76
2021/11/24 08:32:32;;;;;;;54.33;35.98;;;;;;;2.78;92.64;100558.75;1674105;84;21010;-76
2021/11/24 08:34:59;;;;;;;41.20;25.75;;;;;;;2.82;92.65;100557.91;1705208;83;21455;-76
2021/11/24 08:37:26;;;;;;;41.40;27.05;;;;;;;2.90;92.70;100554.68;1706790;83;20980;-75
2021/11/24 08:39:53;;;;;;;40.12;27.75;;;;;;;2.93;92.40;100557.47;1706909;83;21584;-73
2021/11/24 08:42:19;;;;;;;33.85;23.90;;;;;;;2.99;92.37;100551.44;1707614;84;21054;-77
2021/11/24 08:44:45;;;;;;;39.35;26.15;;;;;;;3.05;92.25;100549.41;1663314;84;21004;-73
2021/11/24 08:47:13;;;;;;;33.55;22.27;;;;;;;3.10;92.12;100548.86;1671783;85;21039;-77
2021/11/24 08:49:39;;;;;;;41.15;28.52;;;;;;;3.15;91.94;100546.49;1685802;84;21092;-74
2021/11/24 08:52:06;;;;;;;39.30;27.07;;;;;;;3.16;91.69;100550.30;1717263;82;21081;-77
2021/11/24 08:54:37;;;;;;;27.02;21.35;;;;;;;3.19;91.67;100545.12;1717716;82;22172;-75
2021/11/24 08:57:04;;;;;;;33.13;23.55;;;;;;;3.22;91.66;100543.41;1711478;82;21198;-73
2021/11/24 08:59:31;;;;;;;36.75;24.90;;;;;;;3.29;91.59;100542.52;1717966;82;21036;-73
2021/11/24 09:01:57;;;;;;;41.70;27.25;;;;;;;3.40;91.52;100536.77;1737739;82;20990;-72
2021/11/24 09:04:24;;;;;;;34.50;24.32;;;;;;;3.52;91.38;100535.80;1736861;82;21041;-74
2021/11/24 09:06:50;;;;;;;66.25;45.73;;;;;;;3.61;91.02;100537.34;1735574;82;21043;-72
2021/11/24 09:09:17;;;;;;;43.38;28.25;;;;;;;3.63;90.42;100538.50;1717629;82;21035;-74
2021/11/24 09:11:43;;;;;;;32.45;22.50;;;;;;;3.63;90.16;100542.49;1737034;82;21672;-71
2021/11/24 09:14:11;;;;;;;37.88;21.82;;;;;;;3.60;89.62;100541.01;1737111;82;20969;-73
2021/11/24 09:16:41;;;;;;;34.15;22.15;;;;;;;3.65;89.63;100535.97;1735979;82;21522;-73
2021/11/24 09:19:08;;;;;;;31.37;23.22;;;;;;;3.66;89.07;100548.77;1717357;82;21255;-75
2021/11/24 09:21:34;;;;;;;33.55;23.87;;;;;;;3.69;89.14;100542.59;1736775;82;20978;-75
2021/11/24 09:24:04;;;;;;;36.00;23.75;;;;;;;3.74;88.85;100542.84;1716931;82;21514;-75
2021/11/24 09:26:42;;;;;;;30.45;19.65;;;;;;;3.69;88.38;100543.92;1717302;82;21583;-74
2021/11/24 09:29:07;;;;;;;26.52;20.40;;;;;;;3.68;88.39;100546.76;1736880;82;21001;-77
2021/11/24 09:31:34;;;;;;;25.48;18.12;;;;;;;3.69;88.29;100545.76;1737125;82;21468;-76
2021/11/24 09:34:01;;;;;;;26.23;21.48;;;;;;;3.69;88.11;100546.59;1717642;82;21605;-75
2021/11/24 09:36:27;;;;;;;28.27;19.35;;;;;;;3.65;87.92;100541.28;1701976;81;20970;-73
2021/11/24 09:38:54;;;;;;;24.52;17.37;;;;;;;3.68;88.13;100538.78;1757631;81;20962;-74
2021/11/24 09:41:24;;;;;;;27.98;19.30;;;;;;;3.63;87.77;100541.99;1757856;81;21555;-74
2021/11/24 09:43:54;;;;;;;25.17;17.98;;;;;;;3.55;87.86;100545.25;1735891;81;21866;-74
2021/11/24 09:46:21;;;;;;;26.95;18.70;;;;;;;3.56;88.20;100541.06;1690451;82;20978;-72
2021/11/24 09:48:49;;;;;;;24.60;17.32;;;;;;;3.60;88.07;100546.86;1684889;84;21554;-73
2021/11/24 09:51:15;;;;;;;23.07;15.63;;;;;;;3.65;87.95;100542.61;1749333;81;21551;-76
2021/11/24 09:53:44;;;;;;;23.35;16.97;;;;;;;3.73;88.00;100545.20;1759487;81;21026;-74
2021/11/24 09:56:10;;;;;;;20.43;12.68;;;;;;;3.80;87.77;100544.77;1735568;81;20982;-75
2021/11/24 09:58:37;;;;;;;16.42;13.40;;;;;;;3.86;87.51;100548.53;1735340;81;20994;-75
2021/11/24 10:01:05;;;;;;;16.45;11.33;;;;;;;3.87;86.55;100541.70;1730584;81;21839;-74
2021/11/24 10:03:31;;;;;;;14.98;12.10;;;;;;;3.84;85.17;100544.72;1734546;81;21003;-76
2021/11/24 10:05:58;;;;;;;18.05;11.53;;;;;;;3.79;84.87;100544.97;1712482;82;21030;-77
2021/11/24 10:08:27;;;;;;;15.45;12.30;;;;;;;3.74;84.72;100548.16;1712081;82;22057;-71
2021/11/24 10:10:53;;;;;;;13.18;9.68;;;;;;;3.69;84.69;100542.59;1753388;81;21800;-75
2021/11/24 10:13:22;;;;;;;15.25;11.38;;;;;;;3.68;84.83;100543.59;1735927;81;21014;-76
2021/11/24 10:15:56;;;;;;;14.95;11.38;;;;;;;3.65;84.83;100539.13;1759751;81;21571;-75
2021/11/24 10:18:30;;;;;;;15.18;11.75;;;;;;;3.63;85.09;100541.99;1734317;81;21519;-74
2021/11/24 10:21:09;;;;;;;13.13;11.83;;;;;;;3.66;85.37;100536.30;1709507;82;22055;-73
2021/11/24 10:23:41;;;;;;;16.17;12.18;;;;;;;3.67;85.41;100536.62;1709251;84;20969;-75
2021/11/24 10:26:19;;;;;;;15.05;12.78;;;;;;;3.69;85.20;100548.41;1710121;82;21602;-73
2021/11/24 10:29:07;;;;;;;15.15;12.45;;;;;;;3.69;84.48;100537.28;1748591;81;21042;-75
2021/11/24 10:31:43;;;;;;;16.52;12.25;;;;;;;3.69;84.50;100530.62;1759414;81;20923;-74
2021/11/24 10:34:31;;;;;;;12.13;10.60;;;;;;;3.67;84.30;100533.95;1759254;81;21467;-75
2021/11/24 10:37:05;;;;;;;14.07;11.25;;;;;;;3.70;84.36;100532.25;1755525;81;21046;-71
2021/11/24 10:39:45;;;;;;;13.95;10.82;;;;;;;3.75;84.36;100522.38;1720433;81;21041;-76
2021/11/24 10:42:35;;;;;;;16.12;11.57;;;;;;;3.84;84.22;100519.94;1696851;84;21002;-75
2021/11/24 10:45:17;;;;;;;15.38;12.30;;;;;;;3.91;84.09;100519.02;1654563;85;21003;-76
2021/11/24 10:47:55;;;;;;;13.35;11.60;;;;;;;3.99;84.14;100522.58;1707292;82;26858;-75
2021/11/24 10:50:28;;;;;;;15.40;12.53;;;;;;;4.03;83.85;100524.67;1680277;83;21019;-75
2021/11/24 10:52:56;;;;;;;13.78;9.70;;;;;;;4.03;83.71;100520.69;1721896;82;21029;-75
2021/11/24 10:55:30;;;;;;;18.95;13.22;;;;;;;4.04;83.68;100525.50;1737231;82;21023;-76
2021/11/24 10:58:16;;;;;;;15.43;11.88;;;;;;;4.01;83.69;100524.05;1738004;82;21402;-77
2021/11/24 11:00:45;;;;;;;17.50;11.80;;;;;;;4.02;83.91;100527.55;1736195;81;22162;-73
2021/11/24 11:03:14;;;;;;;17.17;12.13;;;;;;;4.06;84.05;100525.65;1699693;84;21587;-73
2021/11/24 11:05:42;;;;;;;14.25;10.63;;;;;;;4.12;84.20;100522.75;1705557;84;20998;-70
2021/11/24 11:08:10;;;;;;;14.07;10.55;;;;;;;4.22;83.90;100516.62;1714613;82;21049;-70
2021/11/24 11:10:44;;;;;;;16.50;10.88;;;;;;;4.22;83.90;100516.62;1713144;82;21170;-69
2021/11/24 11:13:19;;;;;;;14.47;10.80;;;;;;;4.22;83.84;100516.09;1709005;84;21038;-68
2021/11/24 11:15:48;;;;;;;16.40;12.10;;;;;;;4.19;83.91;100504.49;1714300;81;20939;-69
2021/11/24 11:18:26;;;;;;;25.08;12.05;;;;;;;4.23;84.03;100515.58;1701890;82;21031;-72
2021/11/24 11:21:01;;;;;;;19.80;11.80;;;;;;;4.27;83.66;100510.19;1723717;82;21089;-68